Omer, MI

5:24 AM EST on January 26, 2015 (GMT -0500)
RAWS ALGER MI US | Change Station
CLOSE
Current Station
Personal Weather Station
Location: Alger, MI
Elevation: 783 ft
Nearby Weather Stations

Elev 783 ft 44.13 °N, 84.12 °W | Updated 23 minutes ago

Partly Cloudy
Partly Cloudy
5 °F
Feels Like 5 °F
N
0
Wind Variable Wind from North
Gusts 2.0 mph

Today
High -- | Low -- °F
--% Chance of Precip.
Yesterday
High -- | Low -- °F
Precip. -- in
7:59 AM 5:37 PM
Waxing Crescent, 41% visible
Pressure 29.98 in
Visibility 10.0 miles
Clouds Clear
Windchill 5 °F
Dew Point 2 °F
Humidity 87%
Rainfall 0.00 in
Snow Depth Not available.
UV 0 out of 12
Pollen .10 out of 12
Air Quality Not available.
Flu Activity Not available.
METAR KIKW 261014Z AUTO 00000KT 10SM CLR M17/M19 A2998 RMK AO2 T11661189

More Conditions Fewer Conditions

Pressure 29.98 in
Visibility 10.0 miles
Clouds Clear
Windchill 5 °F
Dew Point 2 °F
Humidity 87%
Rainfall 0.00 in
Snow Depth Not available.
UV 0 out of 12
Pollen .10 out of 12
Air Quality Not available.
Flu Activity Not available.
METAR KIKW 261014Z AUTO 00000KT 10SM CLR M17/M19 A2998 RMK AO2 T11661189

More Conditions Fewer Conditions

Nowcast | as of 5:00 am EST on January 26, 2015

At 6 am...partly cloudy. Temperature 10 above. Light winds. At 8 am...partly cloudy. Temperature 12. Light winds. At 10 am...partly cloudy. Temperature 17. Northeast winds 5 mph. At 12 PM...partly cloudy. Temperature 20. East winds 6 mph.

×

10-Day Weather Forecast

Almanac

Astronomy

Jan. 26, 2015 Rise Set
Actual Time
Civil Twilight
Nautical Twilight
Astronomical Twilight
Moon
Length of Visible Light
Length of Day
Tomorrow will be .
, % of the Moon is Illuminated

Today's Extremes

State Highs State Lows

Community

WunderPhotos

Upload Photos

1,790,171 photos uploaded!

WunderBlogs® & News

Nearby

Air Quality

  Air Quality AQ Index Pollutant
Not available.

Snow Depth

Station Depth Elevation

Earthquake Activity

City Distance Mag. Time & Date
Minimum magnitude displayed is 2.5.

Coastal Water Temperatures

Place Temperature

Nearby Weather Stations